Time;durP1;ratioP1;P1;durP2;ratioP2;P2;SDS_P1;SDS_P2;PMS_P1;PMS_P2;Temp;Humidity;BMP_temperature;BMP_pressure;BME280_temperature;BME280_humidity;BME280_pressure;Samples;Min_cycle;Max_cycle;Signal;HPM_P1;HPM_P2
2022/12/25 00:00:18;;;;;;;;;22.00;20.67;;;;;13.88;76.07;100838.66;2109116;27;46188;-63
2022/12/25 00:01:24;;;;;;;;;20.33;20.33;;;;;13.89;75.70;100840.38;2104923;28;46717;-63
2022/12/25 00:02:24;;;;;;;;;23.75;21.50;;;;;13.89;76.06;100838.59;2097615;28;46281;-64
2022/12/25 00:03:24;;;;;;;;;26.67;26.00;;;;;13.89;76.02;100835.94;2096344;28;46839;-61
2022/12/25 00:04:25;;;;;;;;;16.67;15.00;;;;;13.91;75.85;100836.75;2104502;28;46504;-61
2022/12/25 00:05:25;;;;;;;;;16.00;16.00;;;;;13.91;75.74;100838.53;2104803;28;46588;-63
2022/12/25 00:06:26;;;;;;;;;17.33;17.33;;;;;13.91;76.07;100838.53;2104989;27;46750;-63
2022/12/25 00:07:26;;;;;;;;;15.33;15.33;;;;;13.92;75.45;100838.47;2104939;28;46757;-62
2022/12/25 00:08:27;;;;;;;;;17.67;17.33;;;;;13.92;75.87;100829.59;2103928;28;45963;-62
2022/12/25 00:09:27;;;;;;;;;19.75;19.00;;;;;13.93;75.95;100823.34;2104640;28;46353;-62
2022/12/25 00:10:27;;;;;;;;;21.25;20.25;;;;;13.94;76.01;100830.44;2104838;27;45783;-62
2022/12/25 00:11:28;;;;;;;;;17.67;17.33;;;;;13.94;75.63;100825.97;2096379;28;45802;-62
2022/12/25 00:12:28;;;;;;;;;24.25;22.50;;;;;13.95;75.66;100834.84;2096005;28;46694;-63
2022/12/25 00:13:28;;;;;;;;;22.25;19.00;;;;;13.95;76.10;100832.16;2104944;27;46457;-63
2022/12/25 00:14:29;;;;;;;;;17.75;16.25;;;;;13.96;75.67;100828.56;2105151;27;45187;-63
2022/12/25 00:15:29;;;;;;;;;17.33;16.00;;;;;13.96;76.04;100826.78;2104554;28;46972;-63
2022/12/25 00:16:29;;;;;;;;;19.50;19.50;;;;;13.98;75.44;100827.63;2104728;28;45744;-62
2022/12/25 00:17:30;;;;;;;;;19.25;19.00;;;;;13.99;75.67;100826.69;2104291;27;46932;-62
2022/12/25 00:18:30;;;;;;;;;19.00;19.00;;;;;13.98;75.88;100830.28;2104771;27;46501;-62
2022/12/25 00:19:30;;;;;;;;;20.00;17.50;;;;;13.98;75.42;100824.09;2101188;28;46039;-63
2022/12/25 00:20:31;;;;;;;;;22.50;20.25;;;;;13.98;75.80;100824.94;2113930;27;46229;-62
2022/12/25 00:21:32;;;;;;;;;18.00;17.50;;;;;13.98;75.55;100822.28;2110331;27;46963;-63
2022/12/25 00:22:32;;;;;;;;;16.75;16.50;;;;;14.00;75.52;100823.09;2105307;28;46837;-62
2022/12/25 00:23:34;;;;;;;;;19.25;19.25;;;;;14.01;75.37;100818.63;2111660;27;46841;-62
2022/12/25 00:24:34;;;;;;;;;20.60;20.00;;;;;14.01;75.40;100832.84;2111680;27;46915;-63
2022/12/25 00:25:38;;;;;;;;;24.00;21.00;;;;;14.00;75.74;100823.09;2113457;27;46401;-63
2022/12/25 00:26:38;;;;;;;;;18.50;18.25;;;;;14.01;75.83;100830.19;2113965;27;46223;-62
2022/12/25 00:27:40;;;;;;;;;13.50;10.25;;;;;14.01;75.63;100830.19;2113152;27;46917;-62
2022/12/25 00:28:40;;;;;;;;;19.80;18.80;;;;;14.01;75.51;100824.84;2096028;28;46519;-62
2022/12/25 00:29:41;;;;;;;;;19.25;19.25;;;;;14.01;75.76;100824.84;2099835;28;46863;-62
2022/12/25 00:30:41;;;;;;;;;23.33;20.67;;;;;14.01;75.39;100819.50;2103896;28;45165;-63
2022/12/25 00:31:41;;;;;;;;;18.75;17.25;;;;;13.98;75.71;100814.28;2102729;28;46522;-63
2022/12/25 00:32:42;;;;;;;;;22.00;21.00;;;;;13.99;75.42;100815.16;2111254;27;46142;-63
2022/12/25 00:33:44;;;;;;;;;18.75;15.75;;;;;13.98;75.55;100819.63;2113811;27;47007;-62
2022/12/25 00:34:46;;;;;;;;;18.80;18.40;;;;;13.98;75.59;100818.75;2113568;27;47052;-63
2022/12/25 00:36:06;;;;;;;;;16.00;14.75;;;;;13.97;75.43;100817.84;2110882;27;46477;-62
2022/12/25 00:37:06;;;;;;;;;18.25;17.50;;;;;13.98;75.78;100808.06;2106004;28;46170;-61
2022/12/25 00:38:07;;;;;;;;;17.67;17.67;;;;;13.97;75.56;100803.63;2105244;28;45671;-62
2022/12/25 00:39:08;;;;;;;;;15.33;14.67;;;;;13.96;75.82;100812.56;2107438;27;45750;-63
2022/12/25 00:40:09;;;;;;;;;18.67;17.33;;;;;13.95;75.55;100817.03;2113907;27;47005;-62
2022/12/25 00:42:40;;;;;;;;;14.75;13.50;;;;;13.97;75.50;100823.19;2113639;27;46532;-62
2022/12/25 00:43:42;;;;;;;;;19.50;18.75;;;;;13.97;75.53;100827.63;2113818;27;46304;-63
2022/12/25 00:44:42;;;;;;;;;18.50;17.75;;;;;13.96;75.40;100826.78;2113640;27;46518;-62
2022/12/25 00:45:43;;;;;;;;;16.33;16.33;;;;;13.97;75.51;100831.19;2111596;27;46196;-62
2022/12/25 00:46:43;;;;;;;;;17.67;16.00;;;;;13.97;75.90;100832.97;2113747;27;47085;-63
2022/12/25 00:47:43;;;;;;;;;21.25;19.00;;;;;13.96;75.81;100826.78;2105034;28;46233;-63
2022/12/25 00:48:46;;;;;;;;;17.25;17.00;;;;;13.96;75.57;100823.22;2106839;27;46270;-62
2022/12/25 00:49:46;;;;;;;;;18.40;17.20;;;;;13.94;75.76;100827.75;2114007;27;46639;-62
2022/12/25 00:50:47;;;;;;;;;16.33;15.33;;;;;13.93;75.52;100824.22;2109070;27;45479;-62
2022/12/25 00:51:48;;;;;;;;;15.00;15.00;;;;;13.94;76.07;100823.28;2107359;27;46167;-63
2022/12/25 00:52:48;;;;;;;;;18.75;18.00;;;;;13.95;75.81;100824.16;2097403;28;46796;-63
2022/12/25 00:53:49;;;;;;;;;20.67;18.67;;;;;13.96;75.75;100818.78;2102373;28;46683;-62
2022/12/25 00:54:49;;;;;;;;;15.33;15.33;;;;;13.97;75.61;100806.31;2105794;28;45620;-62
2022/12/25 00:56:02;;;;;;;;;20.67;19.67;;;;;13.98;75.81;100803.59;2109961;27;45798;-62
2022/12/25 00:57:02;;;;;;;;;19.75;17.25;;;;;13.99;75.50;100796.47;2109074;27;45185;-63
2022/12/25 00:58:02;;;;;;;;;20.33;19.00;;;;;13.99;75.58;100801.81;2113585;27;47017;-62
2022/12/25 00:59:03;;;;;;;;;19.75;19.00;;;;;14.01;75.60;100807.97;2112196;27;46501;-61
2022/12/25 01:00:04;;;;;;;;;17.75;17.75;;;;;14.02;75.83;100805.22;2103181;28;46024;-62
2022/12/25 01:01:04;;;;;;;;;20.20;18.40;;;;;14.03;75.87;100803.44;2104671;28;46660;-63
2022/12/25 01:03:34;;;;;;;;;17.20;17.20;;;;;14.03;75.71;100793.63;2087875;28;47057;-64
2022/12/25 01:04:34;;;;;;;;;17.75;17.50;;;;;14.03;75.47;100790.97;2087578;28;46463;-63
2022/12/25 01:05:35;;;;;;;;;19.00;18.00;;;;;14.03;75.77;100784.75;2087418;28;46716;-63
2022/12/25 01:06:35;;;;;;;;;16.25;14.75;;;;;14.04;75.61;100791.84;2084998;28;46204;-63
2022/12/25 01:07:35;;;;;;;;;18.00;16.33;;;;;14.04;75.42;100792.72;2078977;28;46186;-63
2022/12/25 01:08:37;;;;;;;;;20.33;18.67;;;;;14.05;75.55;100788.25;2091199;28;46376;-62
2022/12/25 01:10:59;;;;;;;;;18.20;17.40;;;;;14.06;75.73;100801.53;2089671;28;46434;-62
2022/12/25 01:12:00;;;;;;;;;15.60;15.60;;;;;14.06;75.87;100800.66;2094908;28;46727;-62
2022/12/25 01:13:00;;;;;;;;;16.50;16.50;;;;;14.05;75.47;100802.44;2092518;28;46760;-63
2022/12/25 01:14:00;;;;;;;;;17.25;17.25;;;;;14.05;75.37;100797.13;2087740;28;46556;-64
2022/12/25 01:15:02;;;;;;;;;18.00;17.25;;;;;14.06;75.53;100803.31;2092739;28;46346;-62
2022/12/25 01:16:10;;;;;;;;;16.80;16.00;;;;;14.04;75.65;100789.16;2095094;28;46487;-63
2022/12/25 01:17:10;;;;;;;;;15.20;14.80;;;;;14.04;75.44;100798.03;2095637;28;46448;-65
2022/12/25 01:18:11;;;;;;;;;14.50;13.75;;;;;14.05;75.36;100801.59;2095054;28;46940;-63
2022/12/25 01:19:11;;;;;;;;;18.50;17.25;;;;;14.05;75.28;100801.59;2095436;28;46358;-61
2022/12/25 01:20:14;;;;;;;;;21.50;17.75;;;;;14.03;75.51;100796.31;2087147;28;47498;-62
2022/12/25 01:21:16;;;;;;;;;18.60;17.80;;;;;14.04;75.41;100807.84;2088537;28;46689;-62
2022/12/25 01:22:17;;;;;;;;;18.80;17.60;;;;;14.05;75.47;100798.91;2087213;28;46997;-61
2022/12/25 01:23:17;;;;;;;;;19.00;19.00;;;;;14.03;75.46;100793.63;2091151;28;46054;-64
2022/12/25 01:24:18;;;;;;;;;19.00;18.75;;;;;14.03;75.60;100798.97;2093280;28;46693;-63
2022/12/25 01:25:18;;;;;;;;;20.25;18.50;;;;;14.03;75.29;100804.31;2079184;28;46906;-63
2022/12/25 01:26:20;;;;;;;;;17.25;16.50;;;;;14.05;75.32;100801.59;2078688;28;46998;-63
2022/12/25 01:27:21;;;;;;;;;18.00;16.60;;;;;14.04;75.72;100790.03;2079201;28;46980;-62
2022/12/25 01:28:21;;;;;;;;;20.00;19.25;;;;;14.05;75.52;100790.91;2078327;28;46683;-61
2022/12/25 01:29:21;;;;;;;;;21.75;21.00;;;;;14.05;75.70;100797.13;2086508;28;46776;-64
2022/12/25 01:30:22;;;;;;;;;19.75;18.75;;;;;14.04;75.56;100803.38;2079159;28;46553;-62
2022/12/25 01:31:23;;;;;;;;;15.50;15.50;;;;;14.05;75.53;100801.59;2080595;28;46349;-62
2022/12/25 01:32:23;;;;;;;;;20.00;19.40;;;;;14.05;75.33;100801.59;2079759;28;45811;-62
2022/12/25 01:33:24;;;;;;;;;21.25;21.25;;;;;14.05;75.68;100802.44;2079832;28;45906;-62
2022/12/25 01:34:24;;;;;;;;;19.25;19.25;;;;;14.06;75.58;100803.31;2083272;28;45878;-62
2022/12/25 01:35:25;;;;;;;;;18.50;17.00;;;;;14.06;75.77;100800.66;2087418;28;46173;-63
2022/12/25 01:36:26;;;;;;;;;17.00;16.00;;;;;14.06;75.66;100806.00;2086422;28;46199;-62
2022/12/25 01:37:26;;;;;;;;;21.00;20.25;;;;;14.06;75.48;100806.00;2088431;28;46948;-64
2022/12/25 01:38:26;;;;;;;;;22.25;21.50;;;;;14.05;75.90;100818.47;2095268;28;46527;-62
2022/12/25 01:39:27;;;;;;;;;20.50;20.50;;;;;14.05;75.72;100814.91;2091408;28;46635;-64
2022/12/25 01:40:27;;;;;;;;;21.00;20.50;;;;;14.05;75.70;100825.59;2091854;28;46804;-64
2022/12/25 01:41:27;;;;;;;;;19.50;17.25;;;;;14.05;75.70;100820.25;2112830;27;47135;-64
2022/12/25 01:42:28;;;;;;;;;19.50;19.25;;;;;14.05;75.67;100815.78;2108898;27;46454;-63
2022/12/25 01:43:31;;;;;;;;;19.25;18.25;;;;;14.06;75.70;100822.88;2104131;28;46409;-62
2022/12/25 01:44:34;;;;;;;;;20.40;17.20;;;;;14.06;75.84;100817.53;2110503;27;46837;-61
2022/12/25 01:45:39;;;;;;;;;21.00;19.40;;;;;14.07;75.94;100815.75;2113377;27;46950;-62
2022/12/25 01:46:41;;;;;;;;;17.75;17.75;;;;;14.07;75.74;100816.59;2114447;27;45958;-62
2022/12/25 01:47:42;;;;;;;;;21.20;20.20;;;;;14.07;75.85;100813.94;2112991;27;45892;-61
2022/12/25 01:48:42;;;;;;;;;18.25;18.25;;;;;14.09;75.78;100821.88;2112358;27;46859;-61
2022/12/25 01:49:47;;;;;;;;;22.25;19.00;;;;;14.09;75.52;100816.56;2113572;27;46132;-62
2022/12/25 01:50:54;;;;;;;;;17.50;15.75;;;;;14.09;75.65;100816.56;2110039;27;45894;-61
2022/12/25 01:52:01;;;;;;;;;18.00;16.60;;;;;14.09;75.79;100808.53;2105062;28;46285;-62
2022/12/25 01:53:03;;;;;;;;;16.25;12.25;;;;;14.09;75.62;100811.22;2113558;27;46820;-62
2022/12/25 01:54:07;;;;;;;;;17.75;16.50;;;;;14.10;75.54;100812.97;2112062;27;46609;-62
2022/12/25 01:55:08;;;;;;;;;13.50;12.00;;;;;14.09;75.82;100804.06;2112749;27;46500;-61
2022/12/25 01:56:09;;;;;;;;;21.00;16.25;;;;;14.09;75.93;100801.41;2096149;28;45322;-62
2022/12/25 01:57:22;;;;;;;;;18.00;17.00;;;;;14.09;75.87;100805.88;2099153;28;47047;-62
2022/12/25 01:58:23;;;;;;;;;17.75;15.25;;;;;14.10;75.87;100804.94;2112437;27;46612;-62
2022/12/25 01:59:25;;;;;;;;;13.00;12.50;;;;;14.11;75.64;100809.38;2113476;27;47103;-61
2022/12/25 02:00:25;;;;;;;;;14.75;13.75;;;;;14.10;75.56;100803.19;2112725;27;46325;-63
2022/12/25 02:01:26;;;;;;;;;13.00;13.00;;;;;14.11;75.87;100810.25;2112869;27;46208;-62
2022/12/25 02:02:28;;;;;;;;;12.00;12.00;;;;;14.11;75.54;100806.72;2111861;27;45902;-62
2022/12/25 02:03:28;;;;;;;;;15.25;15.25;;;;;14.10;75.41;100813.84;2104517;27;46569;-63
2022/12/25 02:04:38;;;;;;;;;13.67;13.67;;;;;14.11;75.61;100809.38;2113691;27;45953;-62
2022/12/25 02:05:39;;;;;;;;;11.75;11.75;;;;;14.10;75.45;100811.19;2113216;27;46248;-62
2022/12/25 02:06:40;;;;;;;;;14.67;14.67;;;;;14.10;75.53;100797.84;2112980;27;45623;-63
2022/12/25 02:07:41;;;;;;;;;14.00;14.00;;;;;14.12;75.78;100805.78;2113333;27;46570;-63
2022/12/25 02:08:42;;;;;;;;;13.25;13.25;;;;;14.12;75.66;100795.13;2113360;27;46389;-62
2022/12/25 02:09:43;;;;;;;;;14.33;13.33;;;;;14.11;75.51;100788.03;2112851;27;46654;-62
2022/12/25 02:10:44;;;;;;;;;13.75;13.00;;;;;14.12;75.66;100784.44;2113847;27;46411;-63
2022/12/25 02:11:56;;;;;;;;;11.00;10.00;;;;;14.11;75.49;100783.56;2112785;27;46191;-62
2022/12/25 02:12:57;;;;;;;;;8.50;8.25;;;;;14.12;75.10;100792.44;2103304;28;46547;-62
2022/12/25 02:13:58;;;;;;;;;9.33;9.33;;;;;14.12;75.19;100796.00;2105273;27;46384;-63
2022/12/25 02:15:02;;;;;;;;;12.00;11.00;;;;;14.11;75.25;100788.91;2103920;28;46480;-63
2022/12/25 02:16:14;;;;;;;;;11.25;9.75;;;;;14.12;75.22;100798.66;2105097;27;46599;-63
2022/12/25 02:17:32;;;;;;;;;11.50;11.50;;;;;14.12;75.46;100797.78;2096711;28;46894;-63
2022/12/25 02:18:33;;;;;;;;;9.25;8.25;;;;;14.10;75.11;100799.59;2110887;27;46236;-61
2022/12/25 02:20:15;;;;;;;;;8.67;8.67;;;;;14.08;75.30;100796.13;2112789;27;47172;-61
2022/12/25 02:21:53;;;;;;;;;5.25;4.75;;;;;14.07;75.46;100789.91;2112175;27;45683;-63
2022/12/25 02:23:32;;;;;;;;;4.50;4.25;;;;;14.06;75.23;100788.19;2108386;27;46612;-61
2022/12/25 02:24:38;;;;;;;;;6.75;6.75;;;;;14.06;75.32;100782.84;2114766;27;46437;-62
2022/12/25 02:25:53;;;;;;;;;7.00;6.25;;;;;14.06;75.42;100780.19;2114613;27;47036;-63
2022/12/25 02:27:27;;;;;;;;;6.00;5.75;;;;;14.06;75.39;100781.97;2113556;27;46478;-62
2022/12/25 02:28:37;;;;;;;;;7.75;6.25;;;;;14.05;75.54;100780.22;2111671;27;45644;-63
2022/12/25 02:29:43;;;;;;;;;7.00;7.00;;;;;14.04;75.37;100774.03;2115023;27;45553;-62
2022/12/25 02:31:11;;;;;;;;;9.00;6.50;;;;;14.05;75.55;100777.56;2113106;27;46466;-61
2022/12/25 02:32:17;;;;;;;;;7.75;7.75;;;;;14.06;75.53;100782.84;2105029;27;46691;-62
2022/12/25 02:34:03;;;;;;;;;8.25;7.00;;;;;14.07;75.33;100789.91;2104698;27;46417;-62
2022/12/25 02:35:11;;;;;;;;;3.50;3.50;;;;;14.06;75.41;100787.31;2114225;27;46321;-62
2022/12/25 02:36:20;;;;;;;;;5.25;5.25;;;;;14.06;75.68;100792.66;2113952;27;46316;-62
2022/12/25 02:37:34;;;;;;;;;8.00;8.00;;;;;14.06;75.60;100787.31;2113754;27;46417;-63
2022/12/25 02:39:56;;;;;;;;;11.50;10.50;;;;;14.08;75.63;100777.44;2114522;27;46323;-62
2022/12/25 02:40:23;;;;;;;;;9.00;9.00;;;;;14.08;75.55;100775.66;2088397;28;46526;-62
2022/12/25 02:41:28;;;;;;;;;10.25;10.25;;;;;14.08;75.49;100769.44;2088062;28;46530;-62
2022/12/25 03:07:15;;;;;;;;;10.50;10.00;;;;;14.02;76.23;100770.53;2087466;28;46449;-62
2022/12/25 03:08:21;;;;;;;;;12.75;12.75;;;;;14.03;76.06;100763.41;2085120;28;46521;-62
2022/12/25 03:12:27;;;;;;;;;13.75;13.00;;;;;14.02;76.47;100748.34;2094824;28;46526;-64
2022/12/25 03:13:33;;;;;;;;;13.75;11.00;;;;;14.01;76.62;100743.91;2097141;28;46760;-62
2022/12/25 03:17:12;;;;;;;;;9.75;9.75;;;;;14.02;76.78;100745.66;2097265;28;46913;-61
2022/12/25 03:18:17;;;;;;;;;14.33;14.00;;;;;14.01;76.39;100742.13;2096054;28;45745;-62
2022/12/25 03:27:34;;;;;;;;;12.25;12.25;;;;;14.11;76.71;100727.53;2095613;28;46206;-61
2022/12/25 03:28:34;;;;;;;;;13.33;12.67;;;;;14.12;76.55;100731.06;2096338;28;46496;-62
2022/12/25 03:31:12;;;;;;;;;12.00;11.75;;;;;14.13;76.56;100732.81;2093642;28;47094;-63
2022/12/25 03:32:41;;;;;;;;;14.00;11.00;;;;;14.14;76.35;100734.56;2088341;28;46328;-63
2022/12/25 03:36:08;;;;;;;;;13.75;11.50;;;;;14.11;76.37;100732.88;2038792;28;46739;-62
2022/12/25 03:48:08;;;;;;;;;21.00;17.00;;;;;14.07;76.62;100715.19;2047339;28;46637;-61
2022/12/25 04:36:10;;;;;;;;;25.20;23.20;;;;;14.01;77.26;100658.53;2081563;28;46935;-62
2022/12/25 04:37:10;;;;;;;;;22.00;21.20;;;;;13.99;77.12;100663.94;2071319;28;46296;-62
2022/12/25 04:38:11;;;;;;;;;23.50;22.75;;;;;14.00;77.21;100655.00;2077965;28;46627;-62
2022/12/25 04:39:11;;;;;;;;;28.00;26.75;;;;;14.00;77.09;100657.66;2084909;28;47904;-62
2022/12/25 04:40:12;;;;;;;;;24.50;22.75;;;;;14.00;77.32;100651.47;2087793;28;46647;-62
2022/12/25 04:41:12;;;;;;;;;28.00;26.75;;;;;14.00;77.34;100649.66;2085091;28;46244;-62
2022/12/25 04:42:13;;;;;;;;;28.75;27.00;;;;;14.02;77.33;100646.94;2085054;28;46400;-63
2022/12/25 04:43:13;;;;;;;;;24.25;22.25;;;;;14.02;77.15;100641.59;2087405;28;46339;-62
2022/12/25 04:44:13;;;;;;;;;27.75;25.25;;;;;14.02;77.01;100641.59;2083601;28;46314;-64
2022/12/25 04:45:14;;;;;;;;;22.33;20.67;;;;;14.03;77.25;100644.22;2078570;28;46579;-62
2022/12/25 04:46:14;;;;;;;;;22.25;22.25;;;;;14.03;77.00;100652.22;2085812;28;46094;-63
2022/12/25 04:47:14;;;;;;;;;24.33;22.00;;;;;14.02;76.97;100645.13;2084675;28;45895;-63
2022/12/25 04:48:15;;;;;;;;;24.75;24.75;;;;;14.02;77.15;100645.13;2079542;28;46664;-64
2022/12/25 04:49:15;;;;;;;;;23.00;22.75;;;;;14.02;77.34;100650.47;2081340;28;46475;-62
2022/12/25 04:50:15;;;;;;;;;27.75;26.25;;;;;14.04;77.20;100656.63;2079356;28;46877;-62
2022/12/25 04:51:19;;;;;;;;;27.25;24.25;;;;;14.05;76.92;100657.50;2078984;28;45852;-61
2022/12/25 04:52:19;;;;;;;;;30.60;26.80;;;;;14.04;77.18;100659.28;2079199;28;46722;-62
2022/12/25 04:53:19;;;;;;;;;26.50;23.75;;;;;14.05;77.12;100662.81;2079771;28;45011;-62
2022/12/25 04:54:20;;;;;;;;;28.75;25.50;;;;;14.04;76.95;100664.63;2086293;28;46863;-62
2022/12/25 04:55:20;;;;;;;;;26.50;26.00;;;;;14.04;76.90;100675.31;2085424;28;46120;-62
2022/12/25 04:56:21;;;;;;;;;29.50;23.75;;;;;14.03;77.20;100670.88;2079261;28;46255;-63
2022/12/25 04:57:22;;;;;;;;;24.40;22.80;;;;;14.05;76.80;100674.38;2079191;28;46953;-62
2022/12/25 04:58:22;;;;;;;;;27.25;25.25;;;;;14.05;76.99;100663.69;2080139;28;46798;-62
2022/12/25 04:59:22;;;;;;;;;31.00;28.00;;;;;14.07;77.37;100671.63;2087265;28;46447;-62
2022/12/25 05:00:23;;;;;;;;;23.00;21.00;;;;;14.09;77.16;100676.00;2079264;28;46358;-62
2022/12/25 05:01:23;;;;;;;;;27.50;24.75;;;;;14.11;77.18;100670.63;2078485;28;46692;-62
2022/12/25 05:02:23;;;;;;;;;25.33;23.00;;;;;14.11;76.94;100663.50;2086218;28;46617;-64
2022/12/25 05:03:24;;;;;;;;;28.25;24.75;;;;;14.11;77.15;100668.81;2077034;28;46514;-63
2022/12/25 05:04:24;;;;;;;;;27.75;26.50;;;;;14.13;77.17;100661.63;2079130;28;46831;-63
2022/12/25 05:05:24;;;;;;;;;27.25;25.50;;;;;14.12;77.07;100656.34;2084793;28;46262;-63
2022/12/25 05:06:25;;;;;;;;;29.25;27.00;;;;;14.14;76.86;100657.16;2085225;28;46858;-63
2022/12/25 05:07:25;;;;;;;;;31.00;27.25;;;;;14.14;77.33;100655.34;2079288;28;46501;-63
2022/12/25 05:08:28;;;;;;;;;28.75;24.75;;;;;14.16;76.97;100651.75;2087475;28;46160;-61
2022/12/25 05:09:29;;;;;;;;;26.80;24.00;;;;;14.16;76.76;100649.09;2087009;28;47391;-63
2022/12/25 05:10:29;;;;;;;;;26.00;26.00;;;;;14.17;77.20;100643.69;2088393;28;46603;-63
2022/12/25 05:11:29;;;;;;;;;28.00;27.50;;;;;14.17;76.64;100632.16;2108035;27;46649;-62
2022/12/25 05:12:30;;;;;;;;;30.00;28.00;;;;;14.17;76.93;100621.47;2113560;27;46422;-61
2022/12/25 05:13:31;;;;;;;;;24.75;23.50;;;;;14.16;76.89;100601.06;2106992;27;46580;-63
2022/12/25 05:14:31;;;;;;;;;27.00;24.40;;;;;14.17;76.83;100594.78;2106229;27;46378;-63
2022/12/25 05:15:31;;;;;;;;;27.75;22.25;;;;;14.16;76.95;100582.38;2114351;27;45843;-61
2022/12/25 05:16:32;;;;;;;;;26.25;25.50;;;;;14.16;76.95;100574.38;2113027;27;46754;-62
2022/12/25 05:17:32;;;;;;;;;23.00;20.75;;;;;14.17;77.02;100573.44;2113627;27;46709;-62
2022/12/25 05:18:33;;;;;;;;;24.33;22.33;;;;;14.17;77.23;100568.09;2113670;27;46839;-63
2022/12/25 05:19:33;;;;;;;;;27.40;25.20;;;;;14.16;76.82;100567.22;2113498;27;46618;-62
2022/12/25 05:20:34;;;;;;;;;26.25;24.50;;;;;14.17;77.06;100574.31;2113729;27;46592;-61
2022/12/25 05:21:34;;;;;;;;;25.25;25.25;;;;;14.18;76.78;100575.16;2109685;27;46253;-61
2022/12/25 05:22:35;;;;;;;;;28.00;25.50;;;;;14.17;76.71;100584.97;2105562;28;46363;-61
2022/12/25 05:23:35;;;;;;;;;26.00;25.50;;;;;14.17;76.64;100602.78;2105007;28;46313;-62
2022/12/25 05:24:36;;;;;;;;;26.00;23.33;;;;;14.16;76.88;100607.25;2105389;28;46448;-62
2022/12/25 05:25:39;;;;;;;;;23.75;23.25;;;;;14.16;76.66;100614.41;2104960;28;46274;-62
2022/12/25 05:26:40;;;;;;;;;22.40;21.20;;;;;14.14;76.50;100611.78;2109956;27;46100;-62
2022/12/25 05:27:40;;;;;;;;;22.67;21.67;;;;;14.12;76.59;100613.66;2110992;27;46728;-62
2022/12/25 05:28:41;;;;;;;;;26.00;23.25;;;;;14.11;76.89;100615.44;2113808;27;46689;-62
2022/12/25 05:29:42;;;;;;;;;28.20;27.00;;;;;14.10;76.97;100613.72;2101997;28;46328;-62
2022/12/25 05:30:43;;;;;;;;;26.25;25.75;;;;;14.10;76.70;100618.16;2103242;28;44990;-62
2022/12/25 05:31:43;;;;;;;;;22.75;22.00;;;;;14.09;76.97;100619.94;2104774;28;46372;-63
2022/12/25 05:32:43;;;;;;;;;21.33;21.33;;;;;14.11;76.71;100614.59;2106853;27;46186;-61
2022/12/25 05:33:44;;;;;;;;;22.50;20.75;;;;;14.11;76.81;100612.78;2113659;27;46677;-61
2022/12/25 05:34:44;;;;;;;;;25.00;22.25;;;;;14.11;77.04;100602.09;2110520;27;46287;-62
2022/12/25 05:35:44;;;;;;;;;24.75;21.00;;;;;14.12;76.90;100601.19;2110703;27;46638;-63
2022/12/25 05:36:45;;;;;;;;;24.50;22.25;;;;;14.12;77.08;100598.50;2113631;27;46248;-62
2022/12/25 05:37:45;;;;;;;;;24.33;22.33;;;;;14.13;76.99;100599.38;2110975;27;45590;-63
2022/12/25 05:38:45;;;;;;;;;24.00;23.67;;;;;14.13;76.98;100594.91;2113345;27;45962;-62
2022/12/25 05:39:46;;;;;;;;;24.00;22.00;;;;;14.13;76.64;100584.22;2113238;27;45892;-63
2022/12/25 05:40:46;;;;;;;;;27.00;23.25;;;;;14.12;76.81;100598.50;2102454;28;45193;-62
2022/12/25 05:41:46;;;;;;;;;21.00;20.00;;;;;14.11;76.66;100598.56;2096164;28;46831;-62
2022/12/25 05:42:47;;;;;;;;;20.00;17.25;;;;;14.11;76.53;100607.44;2110881;27;46238;-62
2022/12/25 05:43:47;;;;;;;;;24.33;21.33;;;;;14.11;76.98;100598.56;2113214;27;46259;-61
2022/12/25 05:44:47;;;;;;;;;20.00;18.25;;;;;14.10;76.99;100611.03;2113674;27;45099;-61
2022/12/25 05:45:48;;;;;;;;;22.25;21.25;;;;;14.10;76.91;100607.47;2110903;27;46148;-62
2022/12/25 05:46:49;;;;;;;;;24.50;23.00;;;;;14.09;76.69;100614.63;2113454;27;46340;-61
2022/12/25 05:47:49;;;;;;;;;23.00;21.25;;;;;14.10;76.62;100627.06;2113403;27;46819;-61
2022/12/25 05:48:49;;;;;;;;;22.00;22.00;;;;;14.08;76.70;100633.34;2108735;27;46530;-62
2022/12/25 05:49:50;;;;;;;;;25.33;20.67;;;;;14.08;76.92;100636.88;2105046;28;46757;-62
2022/12/25 05:50:50;;;;;;;;;21.00;19.50;;;;;14.09;76.98;100633.28;2107273;27;46826;-62
2022/12/25 05:51:51;;;;;;;;;23.25;21.75;;;;;14.08;76.98;100628.88;2105882;27;46756;-62
2022/12/25 05:52:51;;;;;;;;;27.50;23.00;;;;;14.08;76.85;100628.88;2113350;27;46522;-63
2022/12/25 05:53:51;;;;;;;;;23.00;21.75;;;;;14.08;77.10;100620.00;2113434;27;45647;-62
2022/12/25 05:54:52;;;;;;;;;20.75;20.00;;;;;14.08;76.72;100625.34;2113428;27;46282;-62
2022/12/25 05:55:52;;;;;;;;;22.50;20.25;;;;;14.08;77.10;100620.00;2110850;27;47170;-61
2022/12/25 05:56:52;;;;;;;;;21.75;21.00;;;;;14.08;76.95;100620.00;2107665;27;46368;-61
2022/12/25 05:57:53;;;;;;;;;23.00;21.75;;;;;14.09;77.05;100603.94;2114446;27;46532;-62
2022/12/25 05:58:53;;;;;;;;;18.33;17.67;;;;;14.08;76.53;100612.88;2111997;27;46321;-62
2022/12/25 05:59:54;;;;;;;;;18.00;17.33;;;;;14.08;77.00;100606.66;2111565;27;46815;-62
2022/12/25 06:00:54;;;;;;;;;21.75;19.75;;;;;14.07;76.85;100608.47;2113806;27;45625;-62
2022/12/25 06:01:55;;;;;;;;;20.00;20.00;;;;;14.08;76.89;100609.34;2104127;28;45856;-62
2022/12/25 06:02:55;;;;;;;;;19.25;18.75;;;;;14.09;77.09;100605.72;2103068;28;46497;-62
2022/12/25 06:03:56;;;;;;;;;20.67;18.67;;;;;14.09;77.11;100606.59;2114881;27;46570;-63
2022/12/25 06:04:56;;;;;;;;;19.67;18.33;;;;;14.10;77.12;100603.03;2110459;27;46148;-63
2022/12/25 06:05:56;;;;;;;;;21.33;20.00;;;;;14.11;76.91;100611.91;2105635;28;46596;-62
2022/12/25 06:06:57;;;;;;;;;18.33;17.67;;;;;14.11;76.65;100610.13;2106669;27;46676;-61
2022/12/25 06:07:57;;;;;;;;;19.00;18.00;;;;;14.12;76.96;100619.00;2107166;27;46620;-62
2022/12/25 06:08:57;;;;;;;;;23.25;21.25;;;;;14.11;76.95;100614.59;2114795;27;46380;-62
2022/12/25 06:09:58;;;;;;;;;17.00;17.00;;;;;14.11;76.89;100611.91;2110088;27;46474;-62
2022/12/25 06:11:01;;;;;;;;;20.00;19.00;;;;;14.11;76.92;100607.44;2105784;27;46752;-61
2022/12/25 06:12:01;;;;;;;;;18.25;17.25;;;;;14.12;76.79;100597.63;2112257;27;46671;-63
2022/12/25 06:13:02;;;;;;;;;20.33;18.00;;;;;14.12;77.24;100597.63;2113766;27;46579;-62
2022/12/25 06:14:02;;;;;;;;;21.75;19.25;;;;;14.13;77.16;100599.38;2114840;27;46370;-63
2022/12/25 06:15:04;;;;;;;;;19.25;19.25;;;;;14.13;76.81;100591.38;2113731;27;46726;-62
2022/12/25 06:16:06;;;;;;;;;23.25;21.00;;;;;14.14;77.08;100585.09;2113901;27;46384;-62
2022/12/25 06:17:06;;;;;;;;;21.25;21.25;;;;;14.15;76.70;100594.84;2114747;27;47257;-63
2022/12/25 06:18:07;;;;;;;;;16.67;15.00;;;;;14.14;76.88;100591.31;2111948;27;46205;-62
2022/12/25 06:19:07;;;;;;;;;18.33;18.33;;;;;14.15;76.71;100581.50;2113814;27;46095;-63
2022/12/25 06:20:08;;;;;;;;;18.33;18.33;;;;;14.14;77.01;100582.44;2113202;27;46841;-61
2022/12/25 06:21:10;;;;;;;;;18.50;17.00;;;;;14.17;76.83;100573.44;2114777;27;46529;-62
2022/12/25 06:22:11;;;;;;;;;19.00;18.00;;;;;14.16;76.96;100575.22;2106573;27;46143;-62
2022/12/25 06:23:11;;;;;;;;;21.67;20.00;;;;;14.15;76.67;100570.81;2109257;27;46801;-63
2022/12/25 06:24:12;;;;;;;;;18.00;18.00;;;;;14.16;76.49;100574.38;2114567;27;46647;-61
2022/12/25 06:25:12;;;;;;;;;20.00;18.00;;;;;14.15;76.95;100560.16;2108045;27;45045;-63
2022/12/25 06:26:16;;;;;;;;;20.67;20.67;;;;;14.16;76.75;100566.34;2111464;27;46207;-64
2022/12/25 06:27:16;;;;;;;;;19.50;17.00;;;;;14.16;76.74;100572.56;2113998;27;46912;-63
2022/12/25 06:28:16;;;;;;;;;20.00;19.00;;;;;14.16;76.57;100574.38;2107862;27;46719;-63
2022/12/25 06:29:17;;;;;;;;;21.33;20.67;;;;;14.15;76.88;100578.84;2106710;27;46453;-63